Grace Hill, Iowa
Current Conditions -  °F | °C
As of 5:15 PM on Wednesday 17 Dec 2014 (Local Time) from KAWG Reporting Station
Clear Clear  
Wind Chill: 15°   Ceiling: Unl
Heat Index: 23°   Visibility: 10mi
Dew Point: 19°   Wind: 7mph
Humidity: 86%   Direction: 320°NW
Pressure: 30.3"   Gusts: NA
Location:  41.3124°N, 91.7455°W
Report Text: KAWG 172315Z AUTO 32006KT 10SM CLR M05/M07 A3030 RMK AO2
Loading
Personal Weather Stations






























Interactive Weather Map New forecast layout! Learn more

10-Day Weather Forecast

Advertisements
Track Severe Weather on mobile